sensor_id;sensor_type;location;lat;lon;timestamp;temperature;humidity
29575;DHT22;16507;51.046;6.406;2023-07-20T00:02:15;16.20;99.90
29575;DHT22;16507;51.046;6.406;2023-07-20T00:04:41;16.20;99.90
29575;DHT22;16507;51.046;6.406;2023-07-20T00:07:07;16.10;99.90
29575;DHT22;16507;51.046;6.406;2023-07-20T00:09:32;16.10;99.90
29575;DHT22;16507;51.046;6.406;2023-07-20T00:11:58;16.00;99.90
29575;DHT22;16507;51.046;6.406;2023-07-20T00:14:25;16.00;99.90
29575;DHT22;16507;51.046;6.406;2023-07-20T00:16:51;15.90;99.90
29575;DHT22;16507;51.046;6.406;2023-07-20T00:19:25;15.90;99.90
29575;DHT22;16507;51.046;6.406;2023-07-20T00:21:51;15.90;99.90
29575;DHT22;16507;51.046;6.406;2023-07-20T00:24:17;15.90;99.90
29575;DHT22;16507;51.046;6.406;2023-07-20T00:26:43;15.90;99.90
29575;DHT22;16507;51.046;6.406;2023-07-20T00:29:10;15.90;99.90
29575;DHT22;16507;51.046;6.406;2023-07-20T00:31:36;15.80;99.90
29575;DHT22;16507;51.046;6.406;2023-07-20T00:34:05;15.80;99.90
29575;DHT22;16507;51.046;6.406;2023-07-20T00:36:32;15.70;99.90
29575;DHT22;16507;51.046;6.406;2023-07-20T00:38:58;15.70;99.90
29575;DHT22;16507;51.046;6.406;2023-07-20T00:41:23;15.60;99.90
29575;DHT22;16507;51.046;6.406;2023-07-20T00:43:50;15.60;99.90
29575;DHT22;16507;51.046;6.406;2023-07-20T00:46:16;15.60;99.90
29575;DHT22;16507;51.046;6.406;2023-07-20T00:48:42;15.70;99.90
29575;DHT22;16507;51.046;6.406;2023-07-20T00:51:08;15.60;99.90
29575;DHT22;16507;51.046;6.406;2023-07-20T00:53:34;15.60;99.90
29575;DHT22;16507;51.046;6.406;2023-07-20T00:56:00;15.60;99.90
29575;DHT22;16507;51.046;6.406;2023-07-20T00:58:26;15.70;99.90
29575;DHT22;16507;51.046;6.406;2023-07-20T01:00:51;15.60;99.90
29575;DHT22;16507;51.046;6.406;2023-07-20T01:03:17;15.60;99.90
29575;DHT22;16507;51.046;6.406;2023-07-20T01:05:54;15.60;99.90
29575;DHT22;16507;51.046;6.406;2023-07-20T01:08:35;15.70;99.90
29575;DHT22;16507;51.046;6.406;2023-07-20T01:11:16;15.60;99.90
29575;DHT22;16507;51.046;6.406;2023-07-20T01:13:45;15.60;99.90
29575;DHT22;16507;51.046;6.406;2023-07-20T01:16:11;15.50;99.90
29575;DHT22;16507;51.046;6.406;2023-07-20T01:18:37;15.40;99.90
29575;DHT22;16507;51.046;6.406;2023-07-20T01:21:09;15.30;99.90
29575;DHT22;16507;51.046;6.406;2023-07-20T01:24:05;15.20;99.90
29575;DHT22;16507;51.046;6.406;2023-07-20T01:32:15;15.00;99.90
29575;DHT22;16507;51.046;6.406;2023-07-20T01:34:43;15.00;99.90
29575;DHT22;16507;51.046;6.406;2023-07-20T01:37:10;15.00;99.90
29575;DHT22;16507;51.046;6.406;2023-07-20T01:39:37;15.00;99.90
29575;DHT22;16507;51.046;6.406;2023-07-20T01:42:04;15.00;99.90
29575;DHT22;16507;51.046;6.406;2023-07-20T01:44:30;15.00;99.90
29575;DHT22;16507;51.046;6.406;2023-07-20T01:46:56;14.90;99.90
29575;DHT22;16507;51.046;6.406;2023-07-20T01:49:21;14.90;99.90
29575;DHT22;16507;51.046;6.406;2023-07-20T01:51:47;14.90;99.90
29575;DHT22;16507;51.046;6.406;2023-07-20T01:54:12;14.90;99.90
29575;DHT22;16507;51.046;6.406;2023-07-20T01:56:38;14.90;99.90
29575;DHT22;16507;51.046;6.406;2023-07-20T01:59:04;15.00;99.90
29575;DHT22;16507;51.046;6.406;2023-07-20T02:01:29;15.00;99.90
29575;DHT22;16507;51.046;6.406;2023-07-20T02:03:55;15.10;99.90
29575;DHT22;16507;51.046;6.406;2023-07-20T02:06:21;15.10;99.90
29575;DHT22;16507;51.046;6.406;2023-07-20T02:08:46;15.10;99.90
29575;DHT22;16507;51.046;6.406;2023-07-20T02:11:12;15.20;99.90
29575;DHT22;16507;51.046;6.406;2023-07-20T02:13:38;15.20;99.90
29575;DHT22;16507;51.046;6.406;2023-07-20T02:16:03;15.30;99.90
29575;DHT22;16507;51.046;6.406;2023-07-20T02:18:29;15.40;99.90
29575;DHT22;16507;51.046;6.406;2023-07-20T02:20:55;15.40;99.90
29575;DHT22;16507;51.046;6.406;2023-07-20T02:23:21;15.50;99.90
29575;DHT22;16507;51.046;6.406;2023-07-20T02:25:46;15.50;99.90
29575;DHT22;16507;51.046;6.406;2023-07-20T02:28:15;15.40;99.90
29575;DHT22;16507;51.046;6.406;2023-07-20T02:30:40;15.40;99.90
29575;DHT22;16507;51.046;6.406;2023-07-20T02:33:07;15.40;99.90
29575;DHT22;16507;51.046;6.406;2023-07-20T02:35:33;15.40;99.90
29575;DHT22;16507;51.046;6.406;2023-07-20T02:37:58;15.30;99.90
29575;DHT22;16507;51.046;6.406;2023-07-20T02:40:24;15.30;99.90
29575;DHT22;16507;51.046;6.406;2023-07-20T02:42:49;15.20;99.90
29575;DHT22;16507;51.046;6.406;2023-07-20T02:45:15;15.20;99.90
29575;DHT22;16507;51.046;6.406;2023-07-20T02:47:41;15.10;99.90
29575;DHT22;16507;51.046;6.406;2023-07-20T02:50:08;15.10;99.90
29575;DHT22;16507;51.046;6.406;2023-07-20T02:52:33;15.10;99.90
29575;DHT22;16507;51.046;6.406;2023-07-20T02:54:59;15.10;99.90
29575;DHT22;16507;51.046;6.406;2023-07-20T02:57:25;15.00;99.90
29575;DHT22;16507;51.046;6.406;2023-07-20T02:59:50;15.00;99.90
29575;DHT22;16507;51.046;6.406;2023-07-20T03:02:16;15.00;99.90
29575;DHT22;16507;51.046;6.406;2023-07-20T03:04:42;15.00;99.90
29575;DHT22;16507;51.046;6.406;2023-07-20T03:07:07;14.90;99.90
29575;DHT22;16507;51.046;6.406;2023-07-20T03:09:33;14.90;99.90
29575;DHT22;16507;51.046;6.406;2023-07-20T03:11:59;14.90;99.90
29575;DHT22;16507;51.046;6.406;2023-07-20T03:14:24;14.80;99.90
29575;DHT22;16507;51.046;6.406;2023-07-20T03:16:50;14.80;99.90
29575;DHT22;16507;51.046;6.406;2023-07-20T03:19:16;14.90;99.90
29575;DHT22;16507;51.046;6.406;2023-07-20T03:21:41;14.90;99.90
29575;DHT22;16507;51.046;6.406;2023-07-20T03:24:08;14.90;99.90
29575;DHT22;16507;51.046;6.406;2023-07-20T03:26:34;15.00;99.90
29575;DHT22;16507;51.046;6.406;2023-07-20T03:29:00;15.00;99.90
29575;DHT22;16507;51.046;6.406;2023-07-20T03:31:26;15.00;99.90
29575;DHT22;16507;51.046;6.406;2023-07-20T03:33:52;15.10;99.90
29575;DHT22;16507;51.046;6.406;2023-07-20T03:36:17;15.20;99.90
29575;DHT22;16507;51.046;6.406;2023-07-20T03:38:43;15.20;99.90
29575;DHT22;16507;51.046;6.406;2023-07-20T03:41:09;15.20;99.90
29575;DHT22;16507;51.046;6.406;2023-07-20T03:43:35;15.20;99.90
29575;DHT22;16507;51.046;6.406;2023-07-20T03:46:00;15.20;99.90
29575;DHT22;16507;51.046;6.406;2023-07-20T03:48:26;15.10;99.90
29575;DHT22;16507;51.046;6.406;2023-07-20T03:50:53;15.10;99.90
29575;DHT22;16507;51.046;6.406;2023-07-20T03:53:19;15.00;99.90
29575;DHT22;16507;51.046;6.406;2023-07-20T03:55:46;15.00;99.90
29575;DHT22;16507;51.046;6.406;2023-07-20T03:58:12;15.10;99.90
29575;DHT22;16507;51.046;6.406;2023-07-20T04:00:38;15.10;99.90
29575;DHT22;16507;51.046;6.406;2023-07-20T04:03:05;15.10;99.90
29575;DHT22;16507;51.046;6.406;2023-07-20T04:05:30;15.10;99.90
29575;DHT22;16507;51.046;6.406;2023-07-20T04:07:56;15.20;99.90
29575;DHT22;16507;51.046;6.406;2023-07-20T04:10:21;15.20;99.90
29575;DHT22;16507;51.046;6.406;2023-07-20T04:12:47;15.20;99.90
29575;DHT22;16507;51.046;6.406;2023-07-20T04:15:13;15.20;99.90
29575;DHT22;16507;51.046;6.406;2023-07-20T04:17:40;15.20;99.90
29575;DHT22;16507;51.046;6.406;2023-07-20T04:20:07;15.20;99.90
29575;DHT22;16507;51.046;6.406;2023-07-20T04:22:33;15.20;99.90
29575;DHT22;16507;51.046;6.406;2023-07-20T04:24:58;15.20;99.90
29575;DHT22;16507;51.046;6.406;2023-07-20T04:27:24;15.20;99.90
29575;DHT22;16507;51.046;6.406;2023-07-20T04:29:49;15.20;99.90
29575;DHT22;16507;51.046;6.406;2023-07-20T04:32:15;15.20;99.90
29575;DHT22;16507;51.046;6.406;2023-07-20T04:34:41;15.20;99.90
29575;DHT22;16507;51.046;6.406;2023-07-20T04:37:07;15.30;99.90
29575;DHT22;16507;51.046;6.406;2023-07-20T04:39:32;15.30;99.90
29575;DHT22;16507;51.046;6.406;2023-07-20T04:41:58;15.30;99.90
29575;DHT22;16507;51.046;6.406;2023-07-20T04:44:24;15.40;99.90
29575;DHT22;16507;51.046;6.406;2023-07-20T04:46:49;15.40;99.90
29575;DHT22;16507;51.046;6.406;2023-07-20T04:49:15;15.40;99.90
29575;DHT22;16507;51.046;6.406;2023-07-20T04:51:41;15.40;99.90
29575;DHT22;16507;51.046;6.406;2023-07-20T04:54:06;15.50;99.90
29575;DHT22;16507;51.046;6.406;2023-07-20T04:56:32;15.50;99.90
29575;DHT22;16507;51.046;6.406;2023-07-20T04:58:58;15.50;99.90
29575;DHT22;16507;51.046;6.406;2023-07-20T05:01:24;15.50;99.90
29575;DHT22;16507;51.046;6.406;2023-07-20T05:03:50;15.60;99.90
29575;DHT22;16507;51.046;6.406;2023-07-20T05:06:15;15.80;99.90
29575;DHT22;16507;51.046;6.406;2023-07-20T05:08:41;15.90;99.90
29575;DHT22;16507;51.046;6.406;2023-07-20T05:11:07;16.00;99.90
29575;DHT22;16507;51.046;6.406;2023-07-20T05:13:33;16.00;99.90
29575;DHT22;16507;51.046;6.406;2023-07-20T05:15:59;16.00;99.90
29575;DHT22;16507;51.046;6.406;2023-07-20T05:18:24;16.10;99.90
29575;DHT22;16507;51.046;6.406;2023-07-20T05:20:50;16.10;99.90
29575;DHT22;16507;51.046;6.406;2023-07-20T05:23:18;16.20;99.90
29575;DHT22;16507;51.046;6.406;2023-07-20T05:25:45;16.30;99.90
29575;DHT22;16507;51.046;6.406;2023-07-20T05:28:10;16.30;99.90
29575;DHT22;16507;51.046;6.406;2023-07-20T05:30:36;16.30;99.90
29575;DHT22;16507;51.046;6.406;2023-07-20T05:33:01;16.30;99.90
29575;DHT22;16507;51.046;6.406;2023-07-20T05:35:27;16.40;99.90
29575;DHT22;16507;51.046;6.406;2023-07-20T05:37:53;16.30;99.90
29575;DHT22;16507;51.046;6.406;2023-07-20T05:40:18;16.40;99.90
29575;DHT22;16507;51.046;6.406;2023-07-20T05:42:45;16.50;99.90
29575;DHT22;16507;51.046;6.406;2023-07-20T05:45:12;16.60;99.90
29575;DHT22;16507;51.046;6.406;2023-07-20T05:47:38;16.60;99.90
29575;DHT22;16507;51.046;6.406;2023-07-20T05:50:04;16.60;99.90
29575;DHT22;16507;51.046;6.406;2023-07-20T05:52:30;16.60;99.90
29575;DHT22;16507;51.046;6.406;2023-07-20T05:54:55;16.60;99.90
29575;DHT22;16507;51.046;6.406;2023-07-20T05:57:21;16.60;99.90
29575;DHT22;16507;51.046;6.406;2023-07-20T05:59:47;16.90;99.90
29575;DHT22;16507;51.046;6.406;2023-07-20T06:02:12;17.10;99.90
29575;DHT22;16507;51.046;6.406;2023-07-20T06:04:39;17.10;99.90
29575;DHT22;16507;51.046;6.406;2023-07-20T06:07:05;17.20;99.90
29575;DHT22;16507;51.046;6.406;2023-07-20T06:09:31;17.10;99.90
29575;DHT22;16507;51.046;6.406;2023-07-20T06:11:56;17.00;99.90
29575;DHT22;16507;51.046;6.406;2023-07-20T06:14:22;17.10;99.90
29575;DHT22;16507;51.046;6.406;2023-07-20T06:16:48;17.10;99.90
29575;DHT22;16507;51.046;6.406;2023-07-20T06:19:13;17.30;99.90
29575;DHT22;16507;51.046;6.406;2023-07-20T06:21:39;17.80;99.90
29575;DHT22;16507;51.046;6.406;2023-07-20T06:24:05;18.40;99.90
29575;DHT22;16507;51.046;6.406;2023-07-20T06:26:31;18.80;99.90
29575;DHT22;16507;51.046;6.406;2023-07-20T06:28:57;18.90;99.90
29575;DHT22;16507;51.046;6.406;2023-07-20T06:31:22;18.60;99.90
29575;DHT22;16507;51.046;6.406;2023-07-20T06:33:48;18.40;99.90
29575;DHT22;16507;51.046;6.406;2023-07-20T06:36:15;18.20;99.90
29575;DHT22;16507;51.046;6.406;2023-07-20T06:38:41;18.10;99.90
29575;DHT22;16507;51.046;6.406;2023-07-20T06:41:07;18.00;99.90
29575;DHT22;16507;51.046;6.406;2023-07-20T06:43:32;17.90;99.90
29575;DHT22;16507;51.046;6.406;2023-07-20T06:45:58;17.90;99.90
29575;DHT22;16507;51.046;6.406;2023-07-20T06:48:23;17.90;99.90
29575;DHT22;16507;51.046;6.406;2023-07-20T06:50:49;18.10;99.90
29575;DHT22;16507;51.046;6.406;2023-07-20T06:53:15;18.30;99.90
29575;DHT22;16507;51.046;6.406;2023-07-20T06:55:42;18.30;99.90
29575;DHT22;16507;51.046;6.406;2023-07-20T06:58:08;18.30;99.90
29575;DHT22;16507;51.046;6.406;2023-07-20T07:00:34;18.50;99.90
29575;DHT22;16507;51.046;6.406;2023-07-20T07:02:59;18.90;99.90
29575;DHT22;16507;51.046;6.406;2023-07-20T07:05:25;19.40;99.90
29575;DHT22;16507;51.046;6.406;2023-07-20T07:07:51;19.20;99.90
29575;DHT22;16507;51.046;6.406;2023-07-20T07:10:16;19.10;99.90
29575;DHT22;16507;51.046;6.406;2023-07-20T07:12:43;19.00;99.90
29575;DHT22;16507;51.046;6.406;2023-07-20T07:15:09;18.70;99.90
29575;DHT22;16507;51.046;6.406;2023-07-20T07:17:36;18.60;99.90
29575;DHT22;16507;51.046;6.406;2023-07-20T07:20:02;18.70;99.90
29575;DHT22;16507;51.046;6.406;2023-07-20T07:22:29;18.50;99.90
29575;DHT22;16507;51.046;6.406;2023-07-20T07:24:54;18.50;99.90
29575;DHT22;16507;51.046;6.406;2023-07-20T07:27:20;18.50;99.90
29575;DHT22;16507;51.046;6.406;2023-07-20T07:29:46;18.70;99.90
29575;DHT22;16507;51.046;6.406;2023-07-20T07:32:12;18.80;99.90
29575;DHT22;16507;51.046;6.406;2023-07-20T07:34:38;19.10;99.90
29575;DHT22;16507;51.046;6.406;2023-07-20T07:37:04;19.10;99.90
29575;DHT22;16507;51.046;6.406;2023-07-20T07:39:30;19.00;99.90
29575;DHT22;16507;51.046;6.406;2023-07-20T07:41:57;18.70;99.90
29575;DHT22;16507;51.046;6.406;2023-07-20T07:44:23;18.40;99.90
29575;DHT22;16507;51.046;6.406;2023-07-20T07:46:49;18.30;99.90
29575;DHT22;16507;51.046;6.406;2023-07-20T07:49:15;18.20;99.90
29575;DHT22;16507;51.046;6.406;2023-07-20T07:51:41;18.30;99.90
29575;DHT22;16507;51.046;6.406;2023-07-20T07:54:06;18.50;99.90
29575;DHT22;16507;51.046;6.406;2023-07-20T07:56:32;19.10;99.90
29575;DHT22;16507;51.046;6.406;2023-07-20T07:58:58;19.50;99.90
29575;DHT22;16507;51.046;6.406;2023-07-20T08:01:23;19.50;99.90
29575;DHT22;16507;51.046;6.406;2023-07-20T08:03:49;19.60;99.90
29575;DHT22;16507;51.046;6.406;2023-07-20T08:06:15;19.80;99.90
29575;DHT22;16507;51.046;6.406;2023-07-20T08:08:41;19.80;99.90
29575;DHT22;16507;51.046;6.406;2023-07-20T08:11:08;20.00;99.90
29575;DHT22;16507;51.046;6.406;2023-07-20T08:13:34;20.60;99.90
29575;DHT22;16507;51.046;6.406;2023-07-20T08:16:00;20.90;99.90
29575;DHT22;16507;51.046;6.406;2023-07-20T08:18:28;20.50;99.90
29575;DHT22;16507;51.046;6.406;2023-07-20T08:20:54;20.00;99.90
29575;DHT22;16507;51.046;6.406;2023-07-20T08:23:20;19.60;99.90
29575;DHT22;16507;51.046;6.406;2023-07-20T08:25:46;19.50;99.90
29575;DHT22;16507;51.046;6.406;2023-07-20T08:28:15;19.40;99.90
29575;DHT22;16507;51.046;6.406;2023-07-20T08:30:49;19.50;99.90
29575;DHT22;16507;51.046;6.406;2023-07-20T08:33:18;19.70;99.90
29575;DHT22;16507;51.046;6.406;2023-07-20T08:35:45;19.80;99.90
29575;DHT22;16507;51.046;6.406;2023-07-20T08:38:11;19.80;99.90
29575;DHT22;16507;51.046;6.406;2023-07-20T08:40:41;19.70;99.90
29575;DHT22;16507;51.046;6.406;2023-07-20T08:43:07;20.00;99.90
29575;DHT22;16507;51.046;6.406;2023-07-20T08:52:17;21.00;99.90
29575;DHT22;16507;51.046;6.406;2023-07-20T08:54:42;20.80;99.90
29575;DHT22;16507;51.046;6.406;2023-07-20T08:57:08;20.20;99.90
29575;DHT22;16507;51.046;6.406;2023-07-20T08:59:38;20.00;99.90
29575;DHT22;16507;51.046;6.406;2023-07-20T09:02:04;20.10;99.90
29575;DHT22;16507;51.046;6.406;2023-07-20T09:04:30;20.40;99.90
29575;DHT22;16507;51.046;6.406;2023-07-20T09:06:57;21.00;93.90
29575;DHT22;16507;51.046;6.406;2023-07-20T09:09:23;21.20;86.10
29575;DHT22;16507;51.046;6.406;2023-07-20T09:11:51;21.40;78.80
29575;DHT22;16507;51.046;6.406;2023-07-20T09:14:16;21.20;99.90
29575;DHT22;16507;51.046;6.406;2023-07-20T09:16:49;21.30;73.70
29575;DHT22;16507;51.046;6.406;2023-07-20T09:19:16;21.00;92.90
29575;DHT22;16507;51.046;6.406;2023-07-20T09:21:45;21.40;78.30
29575;DHT22;16507;51.046;6.406;2023-07-20T09:24:12;21.40;55.20
29575;DHT22;16507;51.046;6.406;2023-07-20T09:26:41;21.80;51.20
29575;DHT22;16507;51.046;6.406;2023-07-20T09:29:07;22.20;49.50
29575;DHT22;16507;51.046;6.406;2023-07-20T09:31:34;22.40;31.30
29575;DHT22;16507;51.046;6.406;2023-07-20T09:34:00;22.40;31.70
29575;DHT22;16507;51.046;6.406;2023-07-20T09:36:29;23.00;25.20
29575;DHT22;16507;51.046;6.406;2023-07-20T09:38:55;23.30;23.50
29575;DHT22;16507;51.046;6.406;2023-07-20T09:41:21;22.70;23.20
29575;DHT22;16507;51.046;6.406;2023-07-20T09:43:47;22.10;25.80
29575;DHT22;16507;51.046;6.406;2023-07-20T09:46:13;21.80;32.20
29575;DHT22;16507;51.046;6.406;2023-07-20T09:48:39;22.00;42.00
29575;DHT22;16507;51.046;6.406;2023-07-20T09:51:05;22.10;37.30
29575;DHT22;16507;51.046;6.406;2023-07-20T09:53:33;21.60;44.30
29575;DHT22;16507;51.046;6.406;2023-07-20T09:55:59;20.80;71.60
29575;DHT22;16507;51.046;6.406;2023-07-20T09:58:26;20.50;91.20
29575;DHT22;16507;51.046;6.406;2023-07-20T10:00:54;21.00;70.20
29575;DHT22;16507;51.046;6.406;2023-07-20T10:03:27;21.70;28.00
29575;DHT22;16507;51.046;6.406;2023-07-20T10:05:59;22.40;24.00
29575;DHT22;16507;51.046;6.406;2023-07-20T10:08:26;23.30;22.30
29575;DHT22;16507;51.046;6.406;2023-07-20T10:10:52;23.90;18.80
29575;DHT22;16507;51.046;6.406;2023-07-20T10:13:29;22.70;19.10
29575;DHT22;16507;51.046;6.406;2023-07-20T10:16:03;21.80;30.50
29575;DHT22;16507;51.046;6.406;2023-07-20T10:18:51;21.40;30.20
29575;DHT22;16507;51.046;6.406;2023-07-20T10:21:19;21.30;37.00
29575;DHT22;16507;51.046;6.406;2023-07-20T10:23:45;21.60;31.80
29575;DHT22;16507;51.046;6.406;2023-07-20T10:26:11;22.10;37.60
29575;DHT22;16507;51.046;6.406;2023-07-20T10:28:38;22.30;21.30
29575;DHT22;16507;51.046;6.406;2023-07-20T10:31:06;22.50;20.30
29575;DHT22;16507;51.046;6.406;2023-07-20T10:33:32;23.10;13.60
29575;DHT22;16507;51.046;6.406;2023-07-20T10:36:03;23.20;8.00
29575;DHT22;16507;51.046;6.406;2023-07-20T10:41:34;22.90;16.70
29575;DHT22;16507;51.046;6.406;2023-07-20T10:44:04;22.30;21.80
29575;DHT22;16507;51.046;6.406;2023-07-20T10:49:06;21.70;21.40
29575;DHT22;16507;51.046;6.406;2023-07-20T10:51:46;21.80;27.70
29575;DHT22;16507;51.046;6.406;2023-07-20T10:56:44;22.50;21.20
29575;DHT22;16507;51.046;6.406;2023-07-20T11:01:59;22.00;18.90
29575;DHT22;16507;51.046;6.406;2023-07-20T11:04:45;21.60;23.30
29575;DHT22;16507;51.046;6.406;2023-07-20T11:07:16;21.70;23.90
29575;DHT22;16507;51.046;6.406;2023-07-20T11:09:42;22.10;20.40
29575;DHT22;16507;51.046;6.406;2023-07-20T11:12:11;22.00;19.80
29575;DHT22;16507;51.046;6.406;2023-07-20T11:17:12;21.90;18.30
29575;DHT22;16507;51.046;6.406;2023-07-20T11:19:48;22.20;20.30
29575;DHT22;16507;51.046;6.406;2023-07-20T11:22:16;23.00;13.30
29575;DHT22;16507;51.046;6.406;2023-07-20T11:24:42;23.80;5.40
29575;DHT22;16507;51.046;6.406;2023-07-20T11:27:08;24.50;4.20
29575;DHT22;16507;51.046;6.406;2023-07-20T11:29:34;24.40;1.00
29575;DHT22;16507;51.046;6.406;2023-07-20T11:32:01;24.60;1.00
29575;DHT22;16507;51.046;6.406;2023-07-20T11:34:30;24.90;1.00
29575;DHT22;16507;51.046;6.406;2023-07-20T11:36:56;24.80;1.00
29575;DHT22;16507;51.046;6.406;2023-07-20T11:39:22;25.00;1.00
29575;DHT22;16507;51.046;6.406;2023-07-20T11:41:57;24.80;1.00
29575;DHT22;16507;51.046;6.406;2023-07-20T11:44:24;23.70;1.00
29575;DHT22;16507;51.046;6.406;2023-07-20T11:47:09;23.00;3.90
29575;DHT22;16507;51.046;6.406;2023-07-20T11:49:40;22.50;6.40
29575;DHT22;16507;51.046;6.406;2023-07-20T11:52:11;22.10;7.10
29575;DHT22;16507;51.046;6.406;2023-07-20T11:54:38;21.80;10.10
29575;DHT22;16507;51.046;6.406;2023-07-20T11:57:05;22.00;12.60
29575;DHT22;16507;51.046;6.406;2023-07-20T11:59:31;22.00;9.50
29575;DHT22;16507;51.046;6.406;2023-07-20T12:01:58;22.20;9.10
29575;DHT22;16507;51.046;6.406;2023-07-20T12:04:24;22.40;8.40
29575;DHT22;16507;51.046;6.406;2023-07-20T12:06:49;22.70;6.20
29575;DHT22;16507;51.046;6.406;2023-07-20T12:09:17;22.80;5.50
29575;DHT22;16507;51.046;6.406;2023-07-20T12:11:43;22.80;2.50
29575;DHT22;16507;51.046;6.406;2023-07-20T12:14:12;22.70;1.10
29575;DHT22;16507;51.046;6.406;2023-07-20T12:16:38;23.40;4.00
29575;DHT22;16507;51.046;6.406;2023-07-20T12:19:11;24.20;1.00
29575;DHT22;16507;51.046;6.406;2023-07-20T12:21:38;25.00;1.00
29575;DHT22;16507;51.046;6.406;2023-07-20T12:24:06;25.20;1.00
29575;DHT22;16507;51.046;6.406;2023-07-20T12:26:33;25.80;1.00
29575;DHT22;16507;51.046;6.406;2023-07-20T12:29:00;26.60;1.00
29575;DHT22;16507;51.046;6.406;2023-07-20T12:31:27;26.00;1.00
29575;DHT22;16507;51.046;6.406;2023-07-20T12:33:53;25.20;1.00
29575;DHT22;16507;51.046;6.406;2023-07-20T12:36:21;25.00;1.00
29575;DHT22;16507;51.046;6.406;2023-07-20T12:38:46;24.60;1.00
29575;DHT22;16507;51.046;6.406;2023-07-20T12:41:13;24.10;1.00
29575;DHT22;16507;51.046;6.406;2023-07-20T12:43:42;24.00;1.00
29575;DHT22;16507;51.046;6.406;2023-07-20T12:46:10;23.70;1.00
29575;DHT22;16507;51.046;6.406;2023-07-20T12:48:37;24.30;1.00
29575;DHT22;16507;51.046;6.406;2023-07-20T12:51:05;24.90;1.00
29575;DHT22;16507;51.046;6.406;2023-07-20T12:53:31;25.50;1.00
29575;DHT22;16507;51.046;6.406;2023-07-20T12:55:58;25.30;1.00
29575;DHT22;16507;51.046;6.406;2023-07-20T12:58:24;24.60;1.00
29575;DHT22;16507;51.046;6.406;2023-07-20T13:00:50;24.50;1.00
29575;DHT22;16507;51.046;6.406;2023-07-20T13:03:15;24.50;1.00
29575;DHT22;16507;51.046;6.406;2023-07-20T13:05:44;24.00;1.00
29575;DHT22;16507;51.046;6.406;2023-07-20T13:08:09;23.90;1.00
29575;DHT22;16507;51.046;6.406;2023-07-20T13:10:35;24.40;1.00
29575;DHT22;16507;51.046;6.406;2023-07-20T13:13:01;25.20;1.00
29575;DHT22;16507;51.046;6.406;2023-07-20T13:15:31;24.80;1.00
29575;DHT22;16507;51.046;6.406;2023-07-20T13:17:59;24.40;1.00
29575;DHT22;16507;51.046;6.406;2023-07-20T13:20:26;24.10;1.00
29575;DHT22;16507;51.046;6.406;2023-07-20T13:22:53;23.80;1.00
29575;DHT22;16507;51.046;6.406;2023-07-20T13:25:18;23.80;1.00
29575;DHT22;16507;51.046;6.406;2023-07-20T13:27:44;24.90;1.00
29575;DHT22;16507;51.046;6.406;2023-07-20T13:30:10;25.20;1.00
29575;DHT22;16507;51.046;6.406;2023-07-20T13:32:44;25.10;1.00
29575;DHT22;16507;51.046;6.406;2023-07-20T13:35:14;24.40;1.00
29575;DHT22;16507;51.046;6.406;2023-07-20T13:37:40;23.60;1.00
29575;DHT22;16507;51.046;6.406;2023-07-20T13:40:07;23.40;1.00
29575;DHT22;16507;51.046;6.406;2023-07-20T13:42:39;23.60;1.00
29575;DHT22;16507;51.046;6.406;2023-07-20T13:45:06;23.60;1.00
29575;DHT22;16507;51.046;6.406;2023-07-20T13:47:31;23.70;1.00
29575;DHT22;16507;51.046;6.406;2023-07-20T13:49:57;23.70;1.00
29575;DHT22;16507;51.046;6.406;2023-07-20T13:52:22;23.70;1.00
29575;DHT22;16507;51.046;6.406;2023-07-20T13:54:48;24.10;1.00
29575;DHT22;16507;51.046;6.406;2023-07-20T13:57:14;24.50;1.00
29575;DHT22;16507;51.046;6.406;2023-07-20T13:59:40;25.50;1.00
29575;DHT22;16507;51.046;6.406;2023-07-20T14:02:06;25.80;1.00
29575;DHT22;16507;51.046;6.406;2023-07-20T14:04:32;26.40;1.00
29575;DHT22;16507;51.046;6.406;2023-07-20T14:06:58;25.80;1.00
29575;DHT22;16507;51.046;6.406;2023-07-20T14:09:23;25.50;1.00
29575;DHT22;16507;51.046;6.406;2023-07-20T14:11:49;24.80;1.00
29575;DHT22;16507;51.046;6.406;2023-07-20T14:14:15;24.90;1.00
29575;DHT22;16507;51.046;6.406;2023-07-20T14:16:40;24.50;1.00
29575;DHT22;16507;51.046;6.406;2023-07-20T14:19:06;23.90;1.00
29575;DHT22;16507;51.046;6.406;2023-07-20T14:21:32;23.70;1.00
29575;DHT22;16507;51.046;6.406;2023-07-20T14:23:58;23.80;1.00
29575;DHT22;16507;51.046;6.406;2023-07-20T14:26:24;23.70;1.00
29575;DHT22;16507;51.046;6.406;2023-07-20T14:28:50;23.70;1.00
29575;DHT22;16507;51.046;6.406;2023-07-20T14:31:15;23.70;1.00
29575;DHT22;16507;51.046;6.406;2023-07-20T14:33:41;23.60;1.00
29575;DHT22;16507;51.046;6.406;2023-07-20T14:36:10;23.50;1.00
29575;DHT22;16507;51.046;6.406;2023-07-20T14:38:35;23.20;1.00
29575;DHT22;16507;51.046;6.406;2023-07-20T14:41:02;23.20;1.00
29575;DHT22;16507;51.046;6.406;2023-07-20T14:43:27;23.40;1.00
29575;DHT22;16507;51.046;6.406;2023-07-20T14:45:55;23.40;1.00
29575;DHT22;16507;51.046;6.406;2023-07-20T14:48:20;23.20;1.00
29575;DHT22;16507;51.046;6.406;2023-07-20T14:50:55;23.60;1.00
29575;DHT22;16507;51.046;6.406;2023-07-20T14:53:20;23.90;1.00
29575;DHT22;16507;51.046;6.406;2023-07-20T14:55:46;23.90;1.00
29575;DHT22;16507;51.046;6.406;2023-07-20T14:58:12;24.00;1.00
29575;DHT22;16507;51.046;6.406;2023-07-20T15:00:38;24.20;1.00
29575;DHT22;16507;51.046;6.406;2023-07-20T15:03:03;24.10;1.00
29575;DHT22;16507;51.046;6.406;2023-07-20T15:05:30;24.10;1.00
29575;DHT22;16507;51.046;6.406;2023-07-20T15:07:55;24.10;1.00
29575;DHT22;16507;51.046;6.406;2023-07-20T15:10:21;24.10;1.00
29575;DHT22;16507;51.046;6.406;2023-07-20T15:12:47;24.00;1.00
29575;DHT22;16507;51.046;6.406;2023-07-20T15:15:13;24.10;1.00
29575;DHT22;16507;51.046;6.406;2023-07-20T15:17:42;24.10;1.00
29575;DHT22;16507;51.046;6.406;2023-07-20T15:20:09;24.00;1.00
29575;DHT22;16507;51.046;6.406;2023-07-20T15:22:35;24.70;1.00
29575;DHT22;16507;51.046;6.406;2023-07-20T15:25:05;24.40;1.00
29575;DHT22;16507;51.046;6.406;2023-07-20T15:27:31;24.20;1.00
29575;DHT22;16507;51.046;6.406;2023-07-20T15:29:57;23.40;1.00
29575;DHT22;16507;51.046;6.406;2023-07-20T15:32:22;24.00;1.00
29575;DHT22;16507;51.046;6.406;2023-07-20T15:34:48;24.40;1.00
29575;DHT22;16507;51.046;6.406;2023-07-20T15:37:14;24.90;1.00
29575;DHT22;16507;51.046;6.406;2023-07-20T15:39:40;25.20;1.00
29575;DHT22;16507;51.046;6.406;2023-07-20T15:42:07;25.20;1.00
29575;DHT22;16507;51.046;6.406;2023-07-20T15:44:33;24.90;1.00
29575;DHT22;16507;51.046;6.406;2023-07-20T15:46:59;24.90;1.00
29575;DHT22;16507;51.046;6.406;2023-07-20T15:49:24;25.30;1.00
29575;DHT22;16507;51.046;6.406;2023-07-20T15:51:51;25.80;1.00
29575;DHT22;16507;51.046;6.406;2023-07-20T15:54:16;26.20;1.00
29575;DHT22;16507;51.046;6.406;2023-07-20T15:56:43;26.70;1.00
29575;DHT22;16507;51.046;6.406;2023-07-20T15:59:11;26.60;1.00